DAUL

Laghouat Airport

Laghouat, Algeria
METAR DAUL 190800Z 07016KT CAVOK 24/09 Q1019
Observed Flight Rules
Jun-19 @ 08:00 UTC (12 hours ago) Visual Flight Rules
Wind Visibility Clouds
70° at 16 knots 10,000+ meters
  • Clear skies
Temperatures Readings
Current 24°C / 75°F
Dewpoint 9°C / 48°F
Humidity 39%
Altimeter 30.09" Hg
Pressure 1019 hPa
Elevation 765
METAR DAUL 190800Z 07016KT CAVOK 24/09 Q1019
Observed Flight Rules
Jun-19 @ 08:00 UTC
(12 hours ago)
VFR
Wind Visibility
70° at 16 knots 10,000+ meters
Clouds
  • Clear skies
Temperature Dewpoint
24°C / 75°F 9°C / 48°F
Humidity Altimeter Pressure
39% 30.09" Hg 1019 hPa